This is the latest recevied weather packets stored in our database for station/object IT9CYW-10. If no packets are shown the sender has not sent any weather packets the latest 10 day(s).
| Time | Temp. | Humidity | Pressure | Rain* | Wind** | Luminosity | Snow |
|---|---|---|---|---|---|---|---|
| 1777978699 | 22.78° C | 62% | 997.2 hPa | - | - | 482 W/m² | - |
| 1777977799 | 23.33° C | 62% | 997.4 hPa | - | - | 443 W/m² | - |
| 1777976899 | 23.33° C | 59% | 997.7 hPa | - | - | 557 W/m² | - |
| 1777975999 | 23.33° C | 56% | 997.5 hPa | - | - | 593 W/m² | - |
| 1777975099 | 23.89° C | 57% | 997.4 hPa | - | - | 797 W/m² | - |
| 1777974199 | 23.33° C | 57% | 997.5 hPa | - | - | 728 W/m² | - |
| 1777973299 | 22.78° C | 61% | 997.7 hPa | - | - | 773 W/m² | - |
| 1777972398 | 22.22° C | 58% | 997.9 hPa | - | - | 773 W/m² | - |
| 1777971498 | 21.67° C | 63% | 998 hPa | - | - | 407 W/m² | - |
| 1777970598 | 21.11° C | 63% | 998 hPa | - | - | 630 W/m² | - |
| 1777969698 | 21.67° C | 59% | 998 hPa | - | - | 303 W/m² | - |
| 1777968798 | 21.11° C | 62% | 998 hPa | - | - | 426 W/m² | - |
| 1777967897 | 21.11° C | 60% | 998.4 hPa | - | - | 256 W/m² | - |
| 1777966997 | 21.67° C | 60% | 998 hPa | - | - | 478 W/m² | - |
| 1777966097 | 21.67° C | 62% | 998 hPa | - | - | 271 W/m² | - |
| 1777965197 | 20° C | 68% | 998.2 hPa | - | - | 257 W/m² | - |
| 1777964297 | 19.44° C | 69% | 998 hPa | - | - | 161 W/m² | - |
| 1777963397 | 17.78° C | 75% | 998.2 hPa | - | - | 171 W/m² | - |
| 1777962497 | 18.33° C | 72% | 997.7 hPa | - | - | 65 W/m² | - |
| 1777961597 | 18.33° C | 70% | 997.7 hPa | - | - | 96 W/m² | - |
| 1777960696 | 18.33° C | 70% | 998 hPa | - | - | 126 W/m² | - |
| 1777959796 | 17.78° C | 74% | 997.9 hPa | - | - | 136 W/m² | - |
| 1777957998 | 15.56° C | 81% | 998 hPa | - | - | 87 W/m² | - |
| 1777957097 | 14.44° C | 84% | 997.7 hPa | - | - | 58 W/m² | - |
| 1777956197 | 13.89° C | 83% | 998 hPa | - | - | 34 W/m² | - |
* Rain since midnight (hover to see other rain measurements)
** Current wind speed in m/s (hover to see current wind gust speed)